Time;durP1;ratioP1;P1;durP2;ratioP2;P2;SDS_P1;SDS_P2;PMS_P1;PMS_P2;Temp;Humidity;BMP_temperature;BMP_pressure;BME280_temperature;BME280_humidity;BME280_pressure;Samples;Min_cycle;Max_cycle;Signal;HPM_P1;HPM_P2
2021/06/07 00:00:34;;;;;;;26.42;17.17;;;18.10;99.90;;;;;;5012499;28;20044;-78
2021/06/07 00:02:59;;;;;;;24.52;16.42;;;18.10;99.90;;;;;;5014916;28;20092;-78
2021/06/07 00:05:25;;;;;;;29.40;16.02;;;18.10;99.90;;;;;;5013532;28;20069;-78
2021/06/07 00:07:51;;;;;;;25.75;15.48;;;18.10;99.90;;;;;;5013786;28;20069;-79
2021/06/07 00:10:19;;;;;;;23.92;14.18;;;17.90;99.90;;;;;;5013441;28;20522;-80
2021/06/07 00:12:45;;;;;;;26.40;15.88;;;17.90;99.90;;;;;;5012746;28;20034;-78
2021/06/07 00:15:14;;;;;;;24.65;15.48;;;17.80;99.90;;;;;;5013638;28;20045;-77
2021/06/07 00:17:40;;;;;;;25.58;15.65;;;17.70;99.90;;;;;;5013086;28;20445;-78
2021/06/07 00:20:12;;;;;;;26.15;16.48;;;17.70;99.90;;;;;;5013010;28;20034;-78
2021/06/07 00:22:38;;;;;;;25.67;16.38;;;17.60;99.90;;;;;;5012435;28;20080;-78
2021/06/07 00:25:06;;;;;;;27.70;17.02;;;17.60;99.90;;;;;;5011857;28;20042;-79
2021/06/07 00:27:31;;;;;;;;;;;17.70;99.90;;;;;;5013671;28;20018;-79
2021/06/07 00:29:57;;;;;;;26.95;16.38;;;17.70;99.90;;;;;;5014916;28;19923;-78
2021/06/07 00:32:23;;;;;;;27.80;16.77;;;17.70;99.90;;;;;;5013126;28;20054;-78
2021/06/07 00:34:49;;;;;;;27.83;18.05;;;17.70;99.90;;;;;;5013005;28;20038;-77
2021/06/07 00:37:14;;;;;;;25.65;17.23;;;17.70;99.90;;;;;;5012466;28;20080;-78
2021/06/07 00:39:40;;;;;;;25.83;17.05;;;17.70;99.90;;;;;;5012472;28;20038;-78
2021/06/07 00:42:06;;;;;;;28.52;17.23;;;17.70;99.90;;;;;;5014220;28;20502;-80
2021/06/07 00:44:32;;;;;;;27.50;18.80;;;17.70;99.90;;;;;;5012217;28;20157;-77
2021/06/07 00:46:57;;;;;;;27.85;18.02;;;17.70;99.90;;;;;;5012731;28;20435;-79
2021/06/07 00:49:24;;;;;;;29.10;18.40;;;17.70;99.90;;;;;;5012593;28;20225;-80
2021/06/07 00:51:50;;;;;;;31.30;20.20;;;17.70;99.90;;;;;;5011226;28;20631;-79
2021/06/07 00:54:16;;;;;;;35.97;19.65;;;17.60;99.90;;;;;;5014216;28;20029;-79
2021/06/07 00:56:44;;;;;;;31.45;19.73;;;17.60;99.90;;;;;;5012240;28;20518;-79
2021/06/07 00:59:10;;;;;;;29.45;20.85;;;17.60;99.90;;;;;;5012140;28;20042;-79
2021/06/07 01:01:36;;;;;;;31.60;20.65;;;17.60;99.90;;;;;;5011223;28;20049;-78
2021/06/07 01:04:02;;;;;;;32.15;19.85;;;17.50;99.90;;;;;;5013751;28;20030;-78
2021/06/07 01:06:29;;;;;;;34.47;19.48;;;17.40;99.90;;;;;;5011876;28;20101;-78
2021/06/07 01:08:55;;;;;;;29.13;18.23;;;17.30;99.90;;;;;;5013692;28;20022;-79
2021/06/07 01:11:23;;;;;;;32.53;18.80;;;17.30;99.90;;;;;;5012206;28;20049;-80
2021/06/07 01:13:50;;;;;;;28.23;16.90;;;17.20;99.90;;;;;;5011525;28;20376;-79
2021/06/07 01:16:17;;;;;;;23.67;17.00;;;17.30;99.90;;;;;;5011887;28;20037;-79
2021/06/07 01:18:44;;;;;;;27.65;16.90;;;17.40;99.90;;;;;;5011724;28;20029;-80
2021/06/07 01:21:13;;;;;;;26.70;16.65;;;17.40;99.90;;;;;;5013534;28;20079;-80
2021/06/07 01:23:41;;;;;;;28.25;16.73;;;17.40;99.90;;;;;;5011802;28;20045;-78
2021/06/07 01:26:08;;;;;;;21.52;14.80;;;17.30;99.90;;;;;;5011537;28;20372;-79
2021/06/07 01:28:35;;;;;;;25.98;15.55;;;17.30;99.90;;;;;;5011724;28;20092;-80
2021/06/07 01:31:01;;;;;;;28.80;16.30;;;17.20;99.90;;;;;;5011491;28;20034;-83
2021/06/07 01:33:28;;;;;;;30.00;17.02;;;17.10;99.90;;;;;;5011399;28;20021;-80
2021/06/07 01:35:59;;;;;;;24.65;16.20;;;17.10;99.90;;;;;;5004144;28;20030;-81
2021/06/07 01:38:26;;;;;;;23.80;16.90;;;17.00;99.90;;;;;;4992449;28;20424;-82
2021/06/07 01:41:00;;;;;;;26.73;16.63;;;16.80;99.90;;;;;;4992478;28;20034;-80
2021/06/07 01:43:27;;;;;;;25.30;16.92;;;16.80;99.90;;;;;;4990811;28;20054;-80
2021/06/07 01:45:54;;;;;;;25.30;16.42;;;16.90;99.90;;;;;;4991787;28;20034;-80
2021/06/07 01:48:21;;;;;;;31.05;17.60;;;16.90;99.90;;;;;;4991891;28;20102;-72
2021/06/07 01:50:47;;;;;;;32.88;18.40;;;16.90;99.90;;;;;;4993497;28;20046;-79
2021/06/07 01:53:14;;;;;;;32.58;18.75;;;16.80;99.90;;;;;;4991966;28;20064;-79
2021/06/07 01:55:44;;;;;;;29.40;19.07;;;16.80;99.90;;;;;;4991868;28;20494;-80
2021/06/07 01:58:11;;;;;;;30.55;19.45;;;16.80;99.90;;;;;;4991589;28;20046;-79
2021/06/07 02:00:40;;;;;;;28.05;18.30;;;16.80;99.90;;;;;;4991867;28;20034;-79
2021/06/07 02:03:07;;;;;;;27.63;18.63;;;16.80;99.90;;;;;;4993121;28;20241;-78
2021/06/07 02:05:36;;;;;;;28.80;17.92;;;16.90;99.90;;;;;;4991335;28;20558;-79
2021/06/07 02:08:06;;;;;;;28.92;17.88;;;16.90;99.90;;;;;;4991696;28;20062;-77
2021/06/07 02:10:35;;;;;;;26.55;17.88;;;16.90;99.90;;;;;;4991606;28;20061;-78
2021/06/07 02:13:01;;;;;;;35.38;19.35;;;16.80;99.90;;;;;;4991139;28;20464;-78
2021/06/07 02:15:27;;;;;;;32.10;18.13;;;16.70;99.90;;;;;;4991199;28;20052;-77
2021/06/07 02:17:52;;;;;;;27.77;16.58;;;16.70;99.90;;;;;;4992004;28;20117;-77
2021/06/07 02:20:21;;;;;;;30.13;17.92;;;16.80;99.90;;;;;;4991296;28;20057;-77
2021/06/07 02:22:47;;;;;;;29.52;18.33;;;16.80;99.90;;;;;;4989822;28;20046;-78
2021/06/07 02:25:18;;;;;;;28.13;17.23;;;16.80;99.90;;;;;;4991108;28;20046;-77
2021/06/07 02:27:45;;;;;;;26.25;18.05;;;16.90;99.90;;;;;;4991131;28;20037;-78
2021/06/07 02:30:18;;;;;;;23.52;17.77;;;16.90;99.90;;;;;;4992698;28;20365;-79
2021/06/07 02:32:44;;;;;;;28.00;18.70;;;16.80;99.90;;;;;;4990883;28;20035;-78
2021/06/07 02:35:12;;;;;;;27.00;18.48;;;16.90;99.90;;;;;;4990797;28;20038;-77
2021/06/07 02:37:39;;;;;;;31.02;19.38;;;16.80;99.90;;;;;;4990725;28;20121;-79
2021/06/07 02:40:11;;;;;;;29.63;18.45;;;16.80;99.90;;;;;;4991144;28;20035;-79
2021/06/07 02:42:38;;;;;;;29.02;18.98;;;16.80;99.90;;;;;;4990897;28;20457;-79
2021/06/07 02:45:07;;;;;;;28.37;19.40;;;16.80;99.90;;;;;;4992023;28;20078;-79
2021/06/07 02:47:33;;;;;;;30.95;20.45;;;16.80;99.90;;;;;;4991142;28;20381;-80
2021/06/07 02:49:59;;;;;;;34.03;20.90;;;16.80;99.90;;;;;;4990539;28;20045;-78
2021/06/07 02:52:24;;;;;;;34.13;20.30;;;16.80;99.90;;;;;;4990527;28;20306;-79
2021/06/07 02:54:50;;;;;;;35.03;21.20;;;16.80;99.90;;;;;;4990159;28;20038;-79
2021/06/07 02:57:16;;;;;;;31.60;20.25;;;16.80;99.90;;;;;;4990987;28;20399;-80
2021/06/07 02:59:42;;;;;;;34.78;20.80;;;16.70;99.90;;;;;;4990323;28;20157;-80
2021/06/07 03:02:07;;;;;;;30.60;21.20;;;16.70;99.90;;;;;;4990843;28;20053;-80
2021/06/07 03:04:33;;;;;;;32.35;20.75;;;16.80;99.90;;;;;;4991267;28;20038;-79
2021/06/07 03:06:58;;;;;;;32.13;21.00;;;16.80;99.90;;;;;;4991521;28;20125;-79
2021/06/07 03:09:24;;;;;;;32.05;21.90;;;16.60;99.90;;;;;;5005643;28;20037;-78
2021/06/07 03:11:50;;;;;;;33.22;22.20;;;16.50;99.90;;;;;;4990723;28;20125;-79
2021/06/07 03:14:15;;;;;;;34.88;21.58;;;16.50;99.90;;;;;;4989885;28;20428;-80
2021/06/07 03:16:42;;;;;;;34.50;21.83;;;16.50;99.90;;;;;;4991747;28;20094;-78
2021/06/07 03:19:07;;;;;;;36.83;22.63;;;16.50;99.90;;;;;;4990371;28;20507;-78
2021/06/07 03:21:33;;;;;;;33.05;22.08;;;16.50;99.90;;;;;;4990588;28;20033;-79
2021/06/07 03:23:59;;;;;;;34.03;22.10;;;16.50;99.90;;;;;;4991674;28;20022;-79
2021/06/07 03:26:24;;;;;;;34.40;22.48;;;16.50;99.90;;;;;;4990316;28;20038;-79
2021/06/07 03:28:50;;;;;;;39.10;24.52;;;16.50;99.90;;;;;;4990161;28;20061;-80
2021/06/07 03:31:16;;;;;;;44.03;22.85;;;16.50;99.90;;;;;;4990151;28;20114;-79
2021/06/07 03:33:41;;;;;;;37.47;22.02;;;16.50;99.90;;;;;;4990021;28;20038;-80
2021/06/07 03:36:07;;;;;;;32.53;21.90;;;16.50;99.90;;;;;;4991355;28;20056;-82
2021/06/07 03:38:34;;;;;;;37.65;21.50;;;16.50;99.90;;;;;;4989681;28;20124;-81
2021/06/07 03:41:01;;;;;;;33.47;21.65;;;16.50;99.90;;;;;;4989938;28;20038;-82
2021/06/07 03:43:30;;;;;;;40.50;22.73;;;16.50;99.90;;;;;;4989574;28;20137;-80
2021/06/07 03:45:56;;;;;;;34.05;21.60;;;16.40;99.90;;;;;;4990121;28;20081;-81
2021/06/07 03:48:23;;;;;;;37.25;22.38;;;16.40;99.90;;;;;;4989961;28;20484;-80
2021/06/07 03:50:50;;;;;;;44.90;22.98;;;16.40;99.90;;;;;;4991263;28;20118;-81
2021/06/07 03:53:15;;;;;;;35.85;22.02;;;16.40;99.90;;;;;;4988362;28;20074;-80
2021/06/07 03:55:42;;;;;;;65.88;23.88;;;16.40;99.90;;;;;;4989935;28;20046;-80
2021/06/07 03:58:08;;;;;;;428.65;48.42;;;16.40;99.90;;;;;;4989545;28;20035;-78
2021/06/07 04:00:36;;;;;;;204.07;30.98;;;16.40;99.90;;;;;;4989823;28;20045;-78
2021/06/07 04:03:05;;;;;;;52.20;24.17;;;16.40;99.90;;;;;;4991408;28;20026;-79
2021/06/07 04:05:31;;;;;;;41.92;23.20;;;16.40;99.90;;;;;;4988682;28;20088;-77
2021/06/07 04:07:57;;;;;;;45.70;23.52;;;16.40;99.90;;;;;;4989713;28;20049;-79
2021/06/07 04:10:25;;;;;;;41.03;22.10;;;16.40;99.90;;;;;;4989735;28;20034;-80
2021/06/07 04:12:51;;;;;;;42.13;23.15;;;16.40;99.90;;;;;;4989852;28;20056;-77
2021/06/07 04:15:19;;;;;;;38.35;22.05;;;16.40;99.90;;;;;;4991139;28;20039;-77
2021/06/07 04:17:46;;;;;;;42.22;21.85;;;16.40;99.90;;;;;;4989788;28;20056;-78
2021/06/07 04:20:15;;;;;;;39.80;22.77;;;16.50;99.90;;;;;;4989443;28;20042;-79
2021/06/07 04:22:42;;;;;;;43.13;22.10;;;16.50;99.90;;;;;;4988491;28;20042;-78
2021/06/07 04:25:09;;;;;;;34.90;21.73;;;16.50;99.90;;;;;;4988634;28;20511;-78
2021/06/07 04:27:35;;;;;;;38.47;21.13;;;16.40;99.90;;;;;;4989641;28;20050;-76
2021/06/07 04:30:05;;;;;;;38.05;22.80;;;16.40;99.90;;;;;;4991082;28;20038;-77
2021/06/07 04:32:32;;;;;;;38.72;21.48;;;16.50;99.90;;;;;;4989308;28;20431;-80
2021/06/07 04:35:00;;;;;;;37.08;21.45;;;16.50;99.90;;;;;;4989574;28;20058;-79
2021/06/07 04:37:27;;;;;;;31.83;20.42;;;16.40;99.90;;;;;;4988681;28;20053;-80
2021/06/07 04:39:52;;;;;;;36.53;21.67;;;16.40;99.90;;;;;;4989913;28;20125;-79
2021/06/07 04:42:18;;;;;;;33.88;20.98;;;16.40;99.90;;;;;;4994381;28;20117;-78
2021/06/07 04:44:43;;;;;;;38.25;20.80;;;16.50;99.90;;;;;;4992696;28;20050;-78
2021/06/07 04:47:09;;;;;;;33.00;20.92;;;16.40;99.90;;;;;;4992733;28;20046;-79
2021/06/07 04:49:35;;;;;;;34.75;21.45;;;16.50;99.90;;;;;;4992791;28;20042;-79
2021/06/07 04:52:00;;;;;;;32.40;21.15;;;16.60;99.90;;;;;;4992842;28;20099;-79
2021/06/07 04:54:26;;;;;;;30.13;19.50;;;16.50;99.90;;;;;;4992653;28;20368;-79
2021/06/07 04:56:51;;;;;;;32.97;21.02;;;16.60;99.90;;;;;;4994266;28;20030;-79
2021/06/07 04:59:17;;;;;;;34.33;20.40;;;16.60;99.90;;;;;;4993030;28;20034;-79
2021/06/07 05:01:42;;;;;;;31.73;20.73;;;16.70;99.90;;;;;;4992320;28;20197;-79
2021/06/07 05:04:08;;;;;;;34.78;21.98;;;16.70;99.90;;;;;;4992637;28;20034;-79
2021/06/07 05:06:34;;;;;;;34.28;20.98;;;16.60;99.90;;;;;;4992460;28;20026;-81
2021/06/07 05:08:59;;;;;;;35.97;20.20;;;16.60;99.90;;;;;;4993815;28;20023;-80
2021/06/07 05:11:25;;;;;;;34.15;20.75;;;16.50;99.90;;;;;;4992563;28;20062;-80
2021/06/07 05:13:50;;;;;;;35.65;21.65;;;16.70;99.90;;;;;;4992165;28;20034;-79
2021/06/07 05:16:16;;;;;;;27.45;19.67;;;16.80;99.90;;;;;;4992306;28;20043;-81
2021/06/07 05:18:42;;;;;;;29.65;20.90;;;16.90;99.90;;;;;;4992458;28;20057;-79
2021/06/07 05:21:07;;;;;;;33.45;22.70;;;16.80;99.90;;;;;;4993724;28;20429;-81
2021/06/07 05:23:34;;;;;;;33.08;21.25;;;16.90;99.90;;;;;;4992281;28;20057;-79
2021/06/07 05:26:00;;;;;;;34.85;22.27;;;16.90;99.90;;;;;;4992580;28;20038;-80
2021/06/07 05:28:26;;;;;;;37.08;20.95;;;17.00;99.90;;;;;;4991679;28;20116;-78
2021/06/07 05:30:52;;;;;;;35.17;21.88;;;17.00;99.90;;;;;;4991047;28;20368;-81
2021/06/07 05:33:18;;;;;;;35.42;22.63;;;17.00;99.90;;;;;;4993612;28;20030;-79
2021/06/07 05:35:49;;;;;;;33.17;23.38;;;17.10;99.90;;;;;;4992048;28;20042;-79
2021/06/07 05:38:16;;;;;;;32.95;22.83;;;17.10;99.90;;;;;;4992028;28;20372;-83
2021/06/07 05:40:43;;;;;;;34.10;22.50;;;17.20;99.90;;;;;;4992062;28;20576;-79
2021/06/07 05:43:09;;;;;;;31.60;22.23;;;17.10;99.90;;;;;;4991515;28;20050;-79
2021/06/07 05:45:36;;;;;;;36.78;23.00;;;17.00;99.90;;;;;;4991896;28;20085;-84
2021/06/07 05:48:02;;;;;;;32.85;21.63;;;17.10;99.90;;;;;;4993137;28;20483;-83
2021/06/07 05:50:32;;;;;;;40.15;23.83;;;17.10;99.90;;;;;;4991620;28;20046;-81
2021/06/07 05:52:58;;;;;;;44.45;28.77;;;17.20;99.90;;;;;;4990541;28;20109;-80
2021/06/07 05:55:26;;;;;;;40.40;27.38;;;17.20;99.90;;;;;;4991669;28;20054;-81
2021/06/07 05:57:55;;;;;;;38.78;25.73;;;17.20;99.90;;;;;;4991775;28;20117;-82
2021/06/07 06:00:26;;;;;;;36.25;23.48;;;17.20;99.90;;;;;;4991715;28;20046;-88
2021/06/07 06:02:52;;;;;;;31.98;22.35;;;17.10;99.90;;;;;;4994061;28;20475;-80
2021/06/07 06:05:17;;;;;;;34.13;22.58;;;17.20;99.90;;;;;;4992691;28;20133;-80
2021/06/07 06:07:45;;;;;;;41.25;24.65;;;17.10;99.90;;;;;;4993833;28;20038;-80
2021/06/07 06:10:13;;;;;;;28.88;20.10;;;17.20;99.90;;;;;;4966233;28;20085;-79
2021/06/07 06:12:39;;;;;;;37.25;20.15;;;17.20;99.90;;;;;;4992216;28;20030;-75
2021/06/07 06:15:07;;;;;;;33.95;20.67;;;17.30;99.90;;;;;;4994043;28;20035;-77
2021/06/07 06:17:32;;;;;;;39.38;24.58;;;17.40;99.90;;;;;;4992140;28;20034;-77
2021/06/07 06:19:58;;;;;;;34.22;22.90;;;17.40;99.90;;;;;;4992734;28;20415;-77
2021/06/07 06:22:24;;;;;;;32.47;20.63;;;17.40;99.90;;;;;;4992542;28;20042;-78
2021/06/07 06:24:49;;;;;;;30.60;19.58;;;17.40;99.90;;;;;;4992004;28;20045;-77
2021/06/07 06:27:15;;;;;;;43.95;22.20;;;17.50;99.90;;;;;;4993375;28;20380;-77
2021/06/07 06:29:42;;;;;;;31.15;21.05;;;17.50;99.90;;;;;;4991719;28;20042;-81
2021/06/07 06:32:09;;;;;;;32.95;21.20;;;17.60;99.90;;;;;;4993259;28;20038;-80
2021/06/07 06:34:36;;;;;;;31.52;21.63;;;17.50;99.90;;;;;;4993352;28;20093;-80
2021/06/07 06:37:02;;;;;;;34.58;21.17;;;17.50;99.90;;;;;;4992567;28;20049;-85
2021/06/07 06:39:28;;;;;;;34.97;21.00;;;17.50;99.90;;;;;;4992740;28;20100;-90
2021/06/07 06:41:53;;;;;;;31.63;20.88;;;17.50;99.90;;;;;;4992890;28;20445;-80
2021/06/07 06:44:19;;;;;;;38.25;21.63;;;17.50;99.90;;;;;;4990441;28;20105;-80
2021/06/07 06:46:44;;;;;;;33.65;22.83;;;17.50;99.90;;;;;;4990478;28;20065;-83
2021/06/07 06:49:10;;;;;;;35.17;23.02;;;17.60;99.90;;;;;;4989574;28;20099;-81
2021/06/07 06:51:36;;;;;;;33.85;22.65;;;17.40;99.90;;;;;;4990735;28;20106;-82
2021/06/07 06:54:02;;;;;;;37.55;23.90;;;17.50;99.90;;;;;;4992306;28;20018;-84
2021/06/07 06:56:28;;;;;;;39.45;23.98;;;17.40;99.90;;;;;;4990705;28;20038;-83
2021/06/07 06:58:53;;;;;;;35.38;22.85;;;17.40;99.90;;;;;;4990662;28;20034;-84
2021/06/07 07:01:19;;;;;;;39.53;24.55;;;17.30;99.90;;;;;;4990789;28;20044;-80
2021/06/07 07:03:47;;;;;;;37.95;25.08;;;17.30;99.90;;;;;;4990046;28;20393;-80
2021/06/07 07:06:14;;;;;;;42.65;25.30;;;17.30;99.90;;;;;;4992243;28;20084;-80
2021/06/07 07:08:39;;;;;;;40.75;24.20;;;17.30;99.90;;;;;;4989147;28;20189;-80
2021/06/07 07:11:05;;;;;;;39.70;24.63;;;17.30;99.90;;;;;;4988842;28;20129;-80
2021/06/07 07:13:31;;;;;;;37.33;23.98;;;17.30;99.90;;;;;;4990535;28;20031;-81
2021/06/07 07:15:56;;;;;;;40.63;24.27;;;17.30;99.90;;;;;;4990344;28;20463;-81
2021/06/07 07:18:22;;;;;;;43.30;24.75;;;17.30;99.90;;;;;;4990247;28;20036;-81
2021/06/07 07:20:47;;;;;;;43.08;25.88;;;17.20;99.90;;;;;;4991897;28;20034;-82
2021/06/07 07:23:13;;;;;;;41.35;25.45;;;17.30;99.90;;;;;;4990066;28;20035;-81
2021/06/07 07:25:40;;;;;;;36.00;23.65;;;17.10;99.90;;;;;;4990175;28;20423;-81
2021/06/07 07:28:07;;;;;;;36.97;24.15;;;17.40;99.90;;;;;;4989993;28;20070;-82
2021/06/07 07:30:34;;;;;;;39.70;25.75;;;17.40;99.90;;;;;;4990155;28;20037;-80
2021/06/07 07:33:01;;;;;;;38.47;23.75;;;17.50;99.90;;;;;;4991194;28;20022;-80
2021/06/07 07:35:28;;;;;;;37.83;23.73;;;17.40;99.90;;;;;;5004285;28;20092;-85
2021/06/07 07:37:55;;;;;;;37.00;23.92;;;17.40;99.90;;;;;;5010077;28;20123;-87
2021/06/07 07:40:23;;;;;;;37.93;24.43;;;17.40;99.90;;;;;;5013151;28;20045;-85
2021/06/07 07:42:51;;;;;;;42.38;23.30;;;17.30;99.90;;;;;;5009441;28;20095;-83
2021/06/07 07:45:19;;;;;;;37.67;22.95;;;17.40;99.90;;;;;;5012381;28;20119;-85
2021/06/07 07:47:45;;;;;;;34.50;23.58;;;17.50;99.90;;;;;;5010050;28;20034;-84
2021/06/07 07:50:16;;;;;;;31.60;22.73;;;17.60;99.90;;;;;;5009814;28;20042;-87
2021/06/07 07:52:42;;;;;;;39.10;24.35;;;17.70;99.90;;;;;;5008672;28;20531;-84
2021/06/07 07:55:14;;;;;;;37.83;22.15;;;17.60;99.90;;;;;;5009737;28;20050;-82
2021/06/07 07:57:41;;;;;;;29.40;20.75;;;17.60;99.90;;;;;;5008485;28;20038;-85
2021/06/07 08:00:09;;;;;;;35.50;24.17;;;17.70;99.90;;;;;;5011366;28;20050;-83
2021/06/07 08:02:35;;;;;;;;;;;17.60;99.90;;;;;;5010184;28;20046;-83
2021/06/07 08:05:01;;;;;;;37.30;23.20;;;17.50;99.90;;;;;;5009372;28;19967;-84
2021/06/07 08:07:26;;;;;;;38.60;23.83;;;17.40;99.90;;;;;;5009358;28;20053;-82
2021/06/07 08:09:52;;;;;;;36.65;22.80;;;17.50;99.90;;;;;;5009591;28;20034;-84
2021/06/07 08:12:18;;;;;;;34.38;21.70;;;17.50;99.90;;;;;;5010932;28;20045;-84
2021/06/07 08:14:44;;;;;;;32.53;21.45;;;17.70;99.90;;;;;;5009954;28;20041;-86
2021/06/07 08:17:10;;;;;;;37.00;20.90;;;17.70;99.90;;;;;;5013170;28;20177;-85
2021/06/07 08:19:37;;;;;;;31.98;21.42;;;17.90;99.90;;;;;;5013951;28;20121;-85
2021/06/07 08:22:03;;;;;;;33.35;20.85;;;18.00;99.90;;;;;;5006472;28;20047;-86
2021/06/07 08:24:29;;;;;;;35.92;22.15;;;18.00;99.90;;;;;;5011645;28;20045;-86
2021/06/07 08:26:55;;;;;;;31.30;20.30;;;18.00;99.60;;;;;;4994183;28;20023;-83
2021/06/07 08:29:20;;;;;;;32.28;20.08;;;18.00;99.60;;;;;;5009545;28;20460;-87
2021/06/07 08:31:46;;;;;;;32.35;19.98;;;18.10;99.40;;;;;;5012747;28;20046;-81
2021/06/07 08:34:12;;;;;;;31.65;20.15;;;18.20;99.50;;;;;;5012688;28;20041;-81
2021/06/07 08:36:38;;;;;;;32.05;20.08;;;18.20;99.40;;;;;;5012940;28;20033;-80
2021/06/07 08:39:08;;;;;;;28.20;19.00;;;18.10;99.60;;;;;;5013057;28;20080;-80
2021/06/07 08:41:33;;;;;;;34.60;19.58;;;18.20;99.60;;;;;;5011565;28;20065;-82
2021/06/07 08:43:59;;;;;;;30.23;19.63;;;18.20;99.40;;;;;;5011654;28;20089;-80
2021/06/07 08:46:25;;;;;;;32.58;20.20;;;18.30;99.40;;;;;;5012643;28;20064;-85
2021/06/07 08:48:53;;;;;;;34.15;20.75;;;18.20;99.40;;;;;;5011479;28;20386;-79
2021/06/07 08:51:19;;;;;;;32.25;19.73;;;18.30;99.60;;;;;;5012865;28;20055;-80
2021/06/07 08:53:46;;;;;;;31.90;20.38;;;18.30;99.60;;;;;;5012448;28;20042;-85
2021/06/07 08:56:11;;;;;;;31.88;19.42;;;18.20;99.60;;;;;;5011747;28;20030;-84
2021/06/07 08:58:37;;;;;;;31.48;19.02;;;18.30;99.50;;;;;;5012262;28;20100;-85
2021/06/07 09:01:03;;;;;;;36.53;19.38;;;18.40;99.50;;;;;;4996053;28;20074;-84
2021/06/07 09:03:31;;;;;;;33.47;22.02;;;18.50;99.40;;;;;;4993319;28;20125;-84
2021/06/07 09:05:58;;;;;;;33.67;21.60;;;18.50;99.50;;;;;;5015667;28;20036;-83
2021/06/07 09:08:30;;;;;;;31.05;20.02;;;18.40;99.50;;;;;;5013175;28;20049;-81
2021/06/07 09:10:56;;;;;;;32.47;20.98;;;18.40;99.70;;;;;;5012487;28;20030;-81
2021/06/07 09:13:27;;;;;;;35.33;21.80;;;18.50;99.60;;;;;;5013274;28;20140;-85
2021/06/07 09:15:56;;;;;;;37.58;23.48;;;18.50;99.60;;;;;;5013306;28;20041;-88
2021/06/07 09:18:33;;;;;;;35.55;22.45;;;18.50;99.70;;;;;;5012756;28;20033;-87
2021/06/07 09:21:05;;;;;;;40.38;24.20;;;18.40;99.60;;;;;;5015944;28;20025;-90
2021/06/07 09:23:50;;;;;;;43.08;25.73;;;18.30;99.80;;;;;;5013224;28;20046;-85
2021/06/07 09:26:27;;;;;;;46.28;26.92;;;18.40;99.90;;;;;;5012304;28;20046;-85
2021/06/07 09:28:55;;;;;;;48.97;29.27;;;18.20;99.90;;;;;;5012235;28;20038;-81
2021/06/07 09:31:30;;;;;;;;;;;18.20;99.90;;;;;;5013015;28;20239;-84
2021/06/07 09:33:57;;;;;;;46.92;24.85;;;18.30;99.90;;;;;;5012229;28;20167;-84
2021/06/07 09:36:30;;;;;;;43.60;24.52;;;18.40;99.90;;;;;;5012092;28;20028;-83
2021/06/07 09:39:00;;;;;;;47.65;28.08;;;18.50;99.90;;;;;;5014451;28;20482;-84
2021/06/07 09:42:01;;;;;;;48.70;27.73;;;18.50;99.90;;;;;;5003219;28;20030;-83
2021/06/07 09:44:49;;;;;;;57.53;31.88;;;18.60;99.90;;;;;;5010971;28;20065;-85
2021/06/07 09:47:36;;;;;;;54.20;32.10;;;18.70;99.90;;;;;;5008438;28;20022;-85
2021/06/07 09:50:07;;;;;;;58.83;33.45;;;18.80;99.80;;;;;;5011962;28;20030;-85
2021/06/07 09:52:44;;;;;;;55.35;32.53;;;18.80;99.80;;;;;;5017194;28;20154;-89
2021/06/07 09:55:12;;;;;;;52.95;30.52;;;19.00;99.70;;;;;;5012524;28;20061;-87
2021/06/07 09:57:42;;;;;;;50.95;27.92;;;19.00;99.50;;;;;;5012029;28;20026;-88
2021/06/07 10:00:11;;;;;;;46.30;25.98;;;19.20;99.50;;;;;;5013751;28;20037;-87
2021/06/07 10:02:37;;;;;;;43.95;24.13;;;19.40;99.30;;;;;;5011875;28;20069;-87
2021/06/07 10:05:05;;;;;;;48.05;24.85;;;19.50;99.20;;;;;;5011344;28;20133;-87
2021/06/07 10:07:31;;;;;;;40.23;23.87;;;19.60;99.10;;;;;;5011073;28;20060;-84
2021/06/07 10:10:23;;;;;;;41.03;23.90;;;19.30;98.90;;;;;;5011885;28;20079;-85
2021/06/07 10:12:48;;;;;;;37.30;23.25;;;19.30;98.90;;;;;;5010585;28;20472;-85
2021/06/07 10:15:35;;;;;;;39.78;24.08;;;19.40;99.10;;;;;;5013693;28;20054;-85
2021/06/07 10:18:06;;;;;;;36.72;22.27;;;19.40;98.90;;;;;;5011566;28;20334;-84
2021/06/07 10:22:59;;;;;;;44.72;25.58;;;19.40;99.00;;;;;;5010770;28;20711;-81
2021/06/07 10:25:26;;;;;;;41.92;26.42;;;19.40;99.00;;;;;;5011056;28;20037;-88
2021/06/07 10:27:52;;;;;;;39.88;23.63;;;19.40;99.10;;;;;;5014475;28;20034;-86
2021/06/07 10:30:21;;;;;;;37.25;24.65;;;19.40;99.00;;;;;;5015105;28;20033;-88
2021/06/07 10:32:48;;;;;;;39.50;23.58;;;19.50;99.00;;;;;;5011097;28;20092;-85
2021/06/07 10:35:32;;;;;;;35.10;22.40;;;19.60;99.00;;;;;;5011049;28;20377;-83
2021/06/07 10:38:09;;;;;;;39.67;27.17;;;19.70;99.10;;;;;;5010488;28;20456;-86
2021/06/07 10:40:43;;;;;;;41.47;25.92;;;19.70;98.90;;;;;;5010838;28;20042;-85
2021/06/07 10:43:11;;;;;;;36.83;24.83;;;19.70;98.70;;;;;;5009321;28;20076;-85
2021/06/07 10:45:41;;;;;;;37.38;25.13;;;19.40;98.90;;;;;;5009094;28;20033;-81
2021/06/07 10:48:09;;;;;;;41.05;26.00;;;19.50;99.10;;;;;;5012311;28;20415;-77
2021/06/07 10:50:40;;;;;;;40.65;27.40;;;19.70;99.40;;;;;;5010193;28;20033;-79
2021/06/07 10:53:06;;;;;;;45.38;26.85;;;19.80;99.30;;;;;;5010209;28;20030;-80
2021/06/07 10:55:39;;;;;;;45.13;27.58;;;19.80;99.50;;;;;;5009998;28;20367;-80
2021/06/07 10:58:06;;;;;;;40.80;25.40;;;19.80;99.20;;;;;;5009838;28;20034;-78
2021/06/07 11:00:32;;;;;;;44.30;26.20;;;19.90;99.10;;;;;;5009640;28;20148;-79
2021/06/07 11:03:01;;;;;;;43.50;26.90;;;20.00;99.00;;;;;;5011538;28;20356;-79
2021/06/07 11:05:31;;;;;;;38.83;25.55;;;20.00;98.90;;;;;;5010175;28;20038;-80
2021/06/07 11:08:08;;;;;;;36.55;24.23;;;20.00;99.00;;;;;;5009930;28;20038;-84
2021/06/07 11:10:45;;;;;;;41.83;25.17;;;20.00;98.80;;;;;;5010377;28;20091;-86
2021/06/07 11:13:12;;;;;;;36.03;24.30;;;20.00;98.80;;;;;;5009739;28;20064;-84
2021/06/07 11:15:50;;;;;;;36.40;22.75;;;20.20;98.90;;;;;;5008919;28;20022;-82
2021/06/07 11:18:27;;;;;;;36.88;22.70;;;20.20;99.00;;;;;;5012161;28;20085;-84
2021/06/07 11:21:06;;;;;;;31.73;20.33;;;20.10;98.90;;;;;;5010296;28;20474;-82
2021/06/07 11:23:43;;;;;;;34.92;21.50;;;20.20;98.80;;;;;;5009555;28;20136;-83
2021/06/07 11:26:17;;;;;;;33.45;20.98;;;20.30;98.80;;;;;;5010089;28;20046;-84
2021/06/07 11:28:47;;;;;;;32.08;20.10;;;20.30;98.70;;;;;;5009521;28;20030;-84
2021/06/07 11:31:19;;;;;;;36.67;21.35;;;20.40;98.60;;;;;;5010102;28;20049;-79
2021/06/07 11:33:47;;;;;;;35.55;21.50;;;20.40;98.60;;;;;;5009573;28;20049;-81
2021/06/07 11:36:44;;;;;;;40.83;23.20;;;20.30;98.70;;;;;;5010961;28;20022;-83
2021/06/07 11:39:18;;;;;;;40.00;22.23;;;20.40;98.60;;;;;;5009707;28;20476;-81
2021/06/07 11:41:46;;;;;;;43.25;24.38;;;20.40;98.60;;;;;;4975326;28;20384;-76
2021/06/07 11:44:14;;;;;;;44.08;26.38;;;20.50;98.70;;;;;;5005003;28;20073;-79
2021/06/07 11:46:39;;;;;;;43.70;24.92;;;20.40;98.50;;;;;;5009582;28;20133;-77
2021/06/07 11:49:12;;;;;;;42.22;25.55;;;20.40;98.60;;;;;;5009357;28;20440;-76
2021/06/07 11:51:38;;;;;;;53.55;27.90;;;20.40;98.50;;;;;;5013397;28;20033;-80
2021/06/07 11:54:26;;;;;;;49.20;29.38;;;20.20;98.70;;;;;;5015089;28;20033;-78
2021/06/07 11:56:58;;;;;;;50.00;27.45;;;20.20;98.70;;;;;;5013687;28;20065;-78
2021/06/07 11:59:29;;;;;;;52.13;27.65;;;20.00;98.90;;;;;;5012377;28;20121;-80
2021/06/07 12:01:55;;;;;;;45.90;27.40;;;20.00;98.80;;;;;;5014901;28;20038;-79
2021/06/07 12:04:23;;;;;;;45.35;25.27;;;20.00;99.00;;;;;;5014199;28;20384;-84
2021/06/07 12:06:49;;;;;;;43.47;25.63;;;19.80;99.00;;;;;;5014021;28;20192;-82
2021/06/07 12:09:15;;;;;;;41.67;24.63;;;19.80;99.20;;;;;;5014828;28;20117;-78
2021/06/07 12:11:44;;;;;;;42.67;26.33;;;20.00;99.30;;;;;;5013336;28;20121;-79
2021/06/07 12:14:09;;;;;;;46.75;25.08;;;20.00;99.00;;;;;;5012751;28;20034;-80
2021/06/07 12:16:39;;;;;;;39.42;24.15;;;20.20;99.10;;;;;;5011989;28;20052;-80
2021/06/07 12:19:10;;;;;;;45.25;24.27;;;20.20;99.00;;;;;;5012965;28;20026;-80
2021/06/07 12:21:35;;;;;;;46.13;25.38;;;20.00;99.00;;;;;;5013207;28;20025;-80
2021/06/07 12:29:31;;;;;;;43.25;25.75;;;20.00;99.00;;;;;;5013080;28;20061;-77
2021/06/07 12:32:05;;;;;;;42.75;24.85;;;20.30;99.00;;;;;;5013116;28;20468;-79
2021/06/07 12:34:31;;;;;;;38.00;23.75;;;20.20;98.90;;;;;;5013009;28;20049;-79
2021/06/07 12:36:57;;;;;;;42.50;23.75;;;20.40;98.90;;;;;;5012714;28;20401;-78
2021/06/07 12:39:24;;;;;;;42.72;25.90;;;20.50;98.70;;;;;;5012948;28;20018;-76